Time;durP1;ratioP1;P1;durP2;ratioP2;P2;SDS_P1;SDS_P2;PMS_P1;PMS_P2;Temp;Humidity;BMP_temperature;BMP_pressure;BME280_temperature;BME280_humidity;BME280_pressure;Samples;Min_cycle;Max_cycle;Signal;HPM_P1;HPM_P2
2024/03/17 00:02:18;;;;;;;1.77;1.63;;;18.90;92.00;;;;;;5054868;28;20021;-39
2024/03/17 00:04:45;;;;;;;2.83;1.50;;;18.80;92.00;;;;;;5055160;28;20527;-37
2024/03/17 00:07:12;;;;;;;2.13;1.40;;;18.80;92.00;;;;;;5054012;28;20024;-34
2024/03/17 00:09:38;;;;;;;1.77;1.48;;;18.80;92.00;;;;;;5054112;28;20021;-36
2024/03/17 00:12:05;;;;;;;2.55;1.48;;;18.80;92.00;;;;;;5054454;28;20091;-36
2024/03/17 00:14:30;;;;;;;2.22;1.55;;;18.80;92.00;;;;;;5054751;28;20464;-35
2024/03/17 00:16:57;;;;;;;2.30;1.55;;;18.80;92.00;;;;;;5054538;28;20119;-37
2024/03/17 00:19:26;;;;;;;2.28;1.60;;;18.80;92.00;;;;;;5054673;28;20060;-34
2024/03/17 00:21:53;;;;;;;2.13;1.70;;;18.80;92.00;;;;;;5055045;28;20105;-36
2024/03/17 00:24:19;;;;;;;2.50;1.70;;;18.80;92.00;;;;;;5054441;28;20122;-35
2024/03/17 00:26:45;;;;;;;2.08;1.50;;;18.80;92.00;;;;;;5052818;28;20033;-35
2024/03/17 00:29:11;;;;;;;2.00;1.50;;;18.80;92.00;;;;;;5053806;28;20053;-35
2024/03/17 00:31:37;;;;;;;3.90;1.60;;;18.80;92.00;;;;;;5053254;28;20114;-35
2024/03/17 00:34:04;;;;;;;2.65;1.77;;;18.70;91.90;;;;;;5053070;28;20033;-34
2024/03/17 00:36:30;;;;;;;2.20;1.60;;;18.70;91.90;;;;;;5052616;28;20037;-34
2024/03/17 00:38:56;;;;;;;5.05;2.03;;;18.70;91.90;;;;;;5052551;28;20021;-34
2024/03/17 00:41:22;;;;;;;4.78;1.77;;;18.70;91.90;;;;;;5052772;28;20025;-36
2024/03/17 00:43:47;;;;;;;3.80;2.03;;;18.80;92.00;;;;;;5052402;28;20091;-35
2024/03/17 00:46:13;;;;;;;3.97;1.80;;;18.70;91.90;;;;;;5052105;28;20025;-36
2024/03/17 00:48:39;;;;;;;2.88;1.77;;;18.70;91.90;;;;;;5052228;28;20033;-34
2024/03/17 00:51:05;;;;;;;2.72;1.77;;;18.70;91.90;;;;;;5052252;28;20100;-34
2024/03/17 00:53:30;;;;;;;2.72;1.48;;;18.70;91.90;;;;;;5052555;28;20441;-34
2024/03/17 00:55:58;;;;;;;1.90;1.50;;;18.70;91.90;;;;;;5052081;28;20025;-35
2024/03/17 00:58:24;;;;;;;2.58;1.40;;;18.70;91.90;;;;;;5052403;28;20033;-36
2024/03/17 01:00:50;;;;;;;2.17;1.63;;;18.70;91.90;;;;;;5051845;28;20029;-34
2024/03/17 01:03:19;;;;;;;2.67;1.77;;;18.70;91.90;;;;;;5052083;28;20380;-35
2024/03/17 01:05:47;;;;;;;1.95;1.38;;;18.70;91.90;;;;;;5052104;28;20090;-35
2024/03/17 01:08:13;;;;;;;2.20;1.52;;;18.70;91.90;;;;;;5052012;28;20021;-35
2024/03/17 01:10:40;;;;;;;1.60;1.10;;;18.60;91.90;;;;;;5052183;28;20029;-35
2024/03/17 01:13:07;;;;;;;2.38;1.48;;;18.70;91.90;;;;;;5052118;28;20107;-34
2024/03/17 01:15:33;;;;;;;1.55;1.25;;;18.60;91.90;;;;;;5051762;28;20547;-36
2024/03/17 01:17:59;;;;;;;4.25;1.42;;;18.60;92.00;;;;;;5051814;28;20056;-34
2024/03/17 01:20:25;;;;;;;1.95;1.08;;;18.60;91.90;;;;;;5051856;28;20029;-36
2024/03/17 01:22:51;;;;;;;2.50;1.40;;;18.60;91.90;;;;;;5051840;28;20114;-35
2024/03/17 01:25:17;;;;;;;2.50;1.30;;;18.60;91.90;;;;;;5051682;28;20495;-34
2024/03/17 01:27:43;;;;;;;1.70;1.17;;;18.60;91.90;;;;;;5051393;28;20430;-35
2024/03/17 01:30:12;;;;;;;1.50;1.10;;;18.60;91.90;;;;;;5051444;28;20415;-34
2024/03/17 01:32:38;;;;;;;1.88;1.33;;;18.60;91.90;;;;;;5051538;28;20029;-43
2024/03/17 01:35:05;;;;;;;2.00;1.40;;;18.60;91.90;;;;;;5051067;28;20071;-44
2024/03/17 01:37:31;;;;;;;1.90;1.25;;;18.60;91.90;;;;;;5051276;28;20105;-44
2024/03/17 01:39:58;;;;;;;1.40;1.10;;;18.60;91.90;;;;;;5051352;28;20044;-44
2024/03/17 01:42:23;;;;;;;1.67;1.30;;;18.60;91.90;;;;;;5051172;28;20059;-44
2024/03/17 01:44:50;;;;;;;1.75;1.10;;;18.60;91.90;;;;;;5051438;28;20033;-43
2024/03/17 01:47:19;;;;;;;1.42;1.20;;;18.60;91.90;;;;;;5049949;28;20043;-44
2024/03/17 01:49:47;;;;;;;2.55;1.20;;;18.50;91.90;;;;;;5051468;28;20023;-44
2024/03/17 01:52:14;;;;;;;2.33;1.35;;;18.50;91.90;;;;;;5051403;28;20021;-44
2024/03/17 01:54:41;;;;;;;1.58;1.15;;;18.50;91.90;;;;;;5051228;28;20031;-44
2024/03/17 01:57:07;;;;;;;1.30;0.90;;;18.50;91.90;;;;;;5050822;28;20029;-44
2024/03/17 01:59:33;;;;;;;1.70;1.23;;;18.50;91.90;;;;;;5051099;28;20032;-44
2024/03/17 02:01:59;;;;;;;1.63;1.00;;;18.50;91.90;;;;;;5051491;28;20074;-44
2024/03/17 02:04:25;;;;;;;1.50;1.20;;;18.50;91.90;;;;;;5051167;28;20029;-44
2024/03/17 02:06:51;;;;;;;2.03;1.23;;;18.50;91.90;;;;;;5051002;28;20052;-43
2024/03/17 02:09:18;;;;;;;2.17;1.10;;;18.50;91.90;;;;;;5051127;28;20499;-43
2024/03/17 02:11:44;;;;;;;1.50;1.00;;;18.50;91.90;;;;;;5050867;28;20017;-44
2024/03/17 02:14:10;;;;;;;1.48;1.10;;;18.50;91.90;;;;;;5051119;28;20028;-43
2024/03/17 02:16:36;;;;;;;2.05;1.27;;;18.50;91.90;;;;;;5051048;28;20082;-44
2024/03/17 02:19:02;;;;;;;1.52;1.13;;;18.50;91.90;;;;;;5051003;28;20025;-44
2024/03/17 02:21:28;;;;;;;1.45;0.90;;;18.50;91.90;;;;;;5050947;28;20037;-44
2024/03/17 02:23:56;;;;;;;2.58;1.10;;;18.40;91.90;;;;;;5051072;28;20435;-43
2024/03/17 02:26:23;;;;;;;1.38;1.10;;;18.40;91.90;;;;;;5050804;28;20075;-44
2024/03/17 02:28:49;;;;;;;2.58;1.33;;;18.50;91.90;;;;;;5050857;28;20068;-43
2024/03/17 02:31:16;;;;;;;1.55;1.30;;;18.50;91.90;;;;;;5051083;28;20064;-44
2024/03/17 02:33:43;;;;;;;2.75;1.20;;;18.50;91.90;;;;;;5051232;28;20018;-44
2024/03/17 02:36:11;;;;;;;1.35;0.98;;;18.40;91.90;;;;;;5050927;28;20104;-44
2024/03/17 02:41:23;;;;;;;1.75;1.20;;;18.40;91.90;;;;;;5050881;28;20435;-44
2024/03/17 02:43:50;;;;;;;1.83;1.02;;;18.40;91.90;;;;;;5051206;28;20440;-44
2024/03/17 02:46:18;;;;;;;1.50;1.00;;;18.40;91.90;;;;;;5052552;28;20056;-44
2024/03/17 02:48:47;;;;;;;1.20;1.00;;;18.40;91.90;;;;;;5054450;28;20025;-44
2024/03/17 02:51:17;;;;;;;1.75;1.05;;;18.40;91.90;;;;;;5054482;28;20020;-44
2024/03/17 02:53:44;;;;;;;1.85;1.10;;;18.40;91.90;;;;;;5054551;28;20029;-44
2024/03/17 02:56:10;;;;;;;2.42;1.30;;;18.40;91.90;;;;;;5054174;28;20029;-44
2024/03/17 02:58:37;;;;;;;2.05;1.30;;;18.40;91.90;;;;;;5054333;28;20039;-43
2024/03/17 03:01:06;;;;;;;1.55;1.20;;;18.40;91.90;;;;;;5054314;28;20075;-44
2024/03/17 03:03:36;;;;;;;1.55;1.10;;;18.40;91.90;;;;;;5054285;28;20029;-43
2024/03/17 03:06:04;;;;;;;2.15;1.20;;;18.40;91.90;;;;;;5054348;28;20395;-44
2024/03/17 03:08:33;;;;;;;1.63;1.10;;;18.40;92.20;;;;;;5053973;28;20029;-44
2024/03/17 03:10:59;;;;;;;2.38;1.00;;;18.40;91.90;;;;;;5053967;28;20017;-44
2024/03/17 03:13:25;;;;;;;1.95;1.20;;;18.30;92.20;;;;;;5054100;28;20361;-44
2024/03/17 03:15:53;;;;;;;1.73;1.10;;;18.30;91.90;;;;;;5054068;28;20423;-44
2024/03/17 03:18:19;;;;;;;3.00;1.20;;;18.30;91.90;;;;;;5053826;28;20032;-44
2024/03/17 03:20:51;;;;;;;1.35;0.95;;;18.30;91.90;;;;;;5053914;28;20388;-44
2024/03/17 03:23:17;;;;;;;2.08;1.10;;;18.30;91.90;;;;;;5053929;28;20029;-43
2024/03/17 03:25:43;;;;;;;1.35;1.00;;;18.30;91.90;;;;;;5054058;28;20040;-45
2024/03/17 03:28:09;;;;;;;1.10;0.90;;;18.30;91.90;;;;;;5053869;28;20151;-44
2024/03/17 03:30:38;;;;;;;1.27;0.93;;;18.30;91.90;;;;;;5053636;28;20022;-43
2024/03/17 03:33:05;;;;;;;1.08;0.82;;;18.30;92.20;;;;;;5053759;28;20024;-44
2024/03/17 03:35:31;;;;;;;2.00;1.05;;;18.30;91.90;;;;;;5053914;28;20021;-43
2024/03/17 03:37:56;;;;;;;1.52;1.00;;;18.30;91.90;;;;;;5053360;28;20033;-44
2024/03/17 03:40:22;;;;;;;2.53;0.85;;;18.30;91.90;;;;;;5053491;28;20395;-43
2024/03/17 03:42:48;;;;;;;1.25;0.95;;;18.30;91.90;;;;;;5053503;28;20044;-43
2024/03/17 03:45:14;;;;;;;1.20;1.00;;;18.30;91.90;;;;;;5053355;28;20369;-44
2024/03/17 03:47:43;;;;;;;1.52;1.00;;;18.30;91.90;;;;;;5053163;28;20025;-44
2024/03/17 03:50:12;;;;;;;1.40;1.00;;;18.30;91.90;;;;;;5053313;28;20032;-44
2024/03/17 03:52:40;;;;;;;2.33;1.27;;;18.30;91.90;;;;;;5053519;28;20017;-44
2024/03/17 03:55:07;;;;;;;1.52;1.00;;;18.30;91.90;;;;;;5053391;28;20049;-44
2024/03/17 03:57:33;;;;;;;1.67;1.02;;;18.30;91.90;;;;;;5052554;28;20048;-44
2024/03/17 04:00:12;;;;;;;1.52;0.98;;;18.30;91.90;;;;;;5053044;28;20031;-44
2024/03/17 04:02:43;;;;;;;1.27;1.00;;;18.30;91.90;;;;;;5053370;28;20492;-43
2024/03/17 04:05:10;;;;;;;1.98;1.05;;;18.20;91.90;;;;;;5053228;28;20029;-43
2024/03/17 04:07:37;;;;;;;1.55;1.00;;;18.20;91.90;;;;;;5052834;28;20021;-44
2024/03/17 04:10:03;;;;;;;1.65;1.17;;;18.20;91.90;;;;;;5051606;28;20017;-44
2024/03/17 04:12:32;;;;;;;1.30;1.08;;;18.20;91.90;;;;;;5052775;28;20021;-43
2024/03/17 04:14:58;;;;;;;1.58;1.10;;;18.20;91.90;;;;;;5052945;28;20066;-43
2024/03/17 04:17:25;;;;;;;1.02;0.80;;;18.20;91.90;;;;;;5052723;28;20456;-44
2024/03/17 04:19:51;;;;;;;1.70;1.10;;;18.30;92.00;;;;;;5052781;28;20029;-43
2024/03/17 04:22:18;;;;;;;1.33;0.98;;;18.20;91.90;;;;;;5052890;28;20503;-43
2024/03/17 04:24:44;;;;;;;2.65;0.93;;;18.20;92.00;;;;;;5052636;28;20033;-44
2024/03/17 04:27:10;;;;;;;1.40;1.00;;;18.20;91.90;;;;;;5052315;28;20025;-44
2024/03/17 04:29:36;;;;;;;1.30;0.80;;;18.20;91.90;;;;;;5052528;28;20052;-44
2024/03/17 04:32:01;;;;;;;1.20;0.90;;;18.20;92.00;;;;;;5052584;28;20048;-44
2024/03/17 04:34:27;;;;;;;1.33;1.02;;;18.20;92.20;;;;;;5052489;28;20024;-43
2024/03/17 04:36:53;;;;;;;1.17;0.90;;;18.20;91.90;;;;;;5052442;28;20503;-43
2024/03/17 04:39:19;;;;;;;1.67;1.00;;;18.20;92.00;;;;;;5052432;28;20068;-43
2024/03/17 04:41:47;;;;;;;1.40;0.80;;;18.20;92.00;;;;;;5052791;28;20066;-43
2024/03/17 04:44:13;;;;;;;2.33;1.10;;;18.20;92.00;;;;;;5052456;28;20025;-45
2024/03/17 04:46:40;;;;;;;1.33;1.00;;;18.20;92.00;;;;;;5052237;28;20017;-44
2024/03/17 04:49:05;;;;;;;1.17;0.90;;;18.20;92.00;;;;;;5052313;28;20032;-45
2024/03/17 04:51:33;;;;;;;1.73;1.23;;;18.20;92.00;;;;;;5052193;28;20020;-44
2024/03/17 04:53:59;;;;;;;1.08;0.85;;;18.10;91.90;;;;;;5052161;28;20488;-44
2024/03/17 04:56:25;;;;;;;3.08;0.90;;;18.10;92.00;;;;;;5052085;28;20029;-44
2024/03/17 04:58:50;;;;;;;1.25;1.00;;;18.20;92.00;;;;;;5052190;28;20025;-44
2024/03/17 05:01:16;;;;;;;1.58;1.10;;;18.10;92.00;;;;;;5052027;28;20028;-43
2024/03/17 05:03:42;;;;;;;1.52;1.00;;;18.10;91.90;;;;;;5052014;28;20032;-44
2024/03/17 05:06:07;;;;;;;1.88;0.88;;;18.10;92.00;;;;;;5052415;28;20064;-44
2024/03/17 05:08:37;;;;;;;1.48;0.82;;;18.10;92.00;;;;;;5050888;28;20108;-44
2024/03/17 05:11:04;;;;;;;1.50;0.90;;;18.10;92.00;;;;;;5051807;28;20028;-44
2024/03/17 05:13:30;;;;;;;1.40;1.00;;;18.10;92.00;;;;;;5051770;28;20116;-43
2024/03/17 05:15:56;;;;;;;1.38;0.80;;;18.10;92.00;;;;;;5051639;28;20480;-43
2024/03/17 05:18:25;;;;;;;2.85;1.10;;;18.10;92.00;;;;;;5051605;28;20040;-43
2024/03/17 05:20:58;;;;;;;1.30;0.88;;;18.10;92.00;;;;;;5051552;28;20029;-44
2024/03/17 05:23:28;;;;;;;1.10;0.90;;;18.10;92.00;;;;;;5051656;28;20552;-45
2024/03/17 05:25:55;;;;;;;1.92;0.98;;;18.10;92.00;;;;;;5050258;28;20040;-44
2024/03/17 05:28:21;;;;;;;1.23;0.80;;;18.10;92.00;;;;;;5051567;28;20565;-44
2024/03/17 05:30:48;;;;;;;1.23;0.90;;;18.10;92.00;;;;;;5051550;28;20037;-44
2024/03/17 05:33:13;;;;;;;2.13;1.00;;;18.10;92.00;;;;;;5051520;28;20079;-45
2024/03/17 05:35:39;;;;;;;1.40;1.00;;;18.10;92.00;;;;;;5051382;28;20575;-44
2024/03/17 05:38:05;;;;;;;1.30;0.80;;;18.10;92.00;;;;;;5051136;28;20036;-45
2024/03/17 05:40:31;;;;;;;0.80;0.70;;;18.10;92.00;;;;;;5051310;28;20565;-44
2024/03/17 05:42:56;;;;;;;1.50;0.80;;;18.10;92.00;;;;;;5051363;28;20103;-45
2024/03/17 05:45:22;;;;;;;1.00;0.80;;;18.00;92.00;;;;;;5051284;28;20059;-45
2024/03/17 05:47:50;;;;;;;1.60;1.00;;;18.00;92.00;;;;;;5051073;28;20025;-44
2024/03/17 05:50:16;;;;;;;1.15;0.80;;;18.00;92.00;;;;;;5051169;28;20028;-45
2024/03/17 05:52:41;;;;;;;1.10;0.90;;;18.00;92.00;;;;;;5051176;28;20029;-44
2024/03/17 05:55:07;;;;;;;1.40;1.00;;;18.00;92.00;;;;;;5051418;28;20391;-43
2024/03/17 05:57:33;;;;;;;1.50;0.90;;;18.00;92.00;;;;;;5051084;28;20486;-44
2024/03/17 05:59:58;;;;;;;1.13;0.88;;;18.10;92.00;;;;;;5051093;28;20021;-44
2024/03/17 06:02:24;;;;;;;1.13;0.80;;;18.00;92.00;;;;;;5051357;28;20361;-44
2024/03/17 06:04:50;;;;;;;1.00;0.70;;;18.00;92.00;;;;;;5051118;28;20048;-44
2024/03/17 06:07:15;;;;;;;1.33;1.00;;;18.00;92.00;;;;;;5050925;28;20037;-45
2024/03/17 06:09:41;;;;;;;1.25;0.90;;;18.00;92.00;;;;;;5051169;28;20472;-44
2024/03/17 06:12:07;;;;;;;1.23;1.00;;;18.00;92.00;;;;;;5051678;28;20484;-44
2024/03/17 06:14:34;;;;;;;1.33;0.68;;;18.00;92.00;;;;;;5050969;28;20400;-45
2024/03/17 06:17:00;;;;;;;0.90;0.80;;;18.00;92.10;;;;;;5050819;28;20500;-44
2024/03/17 06:19:25;;;;;;;1.17;0.82;;;18.00;92.10;;;;;;5051269;28;20029;-44
2024/03/17 06:21:51;;;;;;;1.42;0.70;;;18.00;92.10;;;;;;5054939;28;20026;-44
2024/03/17 06:24:17;;;;;;;2.28;1.00;;;18.00;92.10;;;;;;5055068;28;20025;-44
2024/03/17 06:26:42;;;;;;;1.30;0.80;;;17.90;92.00;;;;;;5055045;28;20021;-44
2024/03/17 06:29:08;;;;;;;1.48;0.93;;;18.00;92.10;;;;;;5054827;28;20487;-45
2024/03/17 06:31:33;;;;;;;1.10;0.77;;;17.90;92.00;;;;;;5054873;28;20430;-44
2024/03/17 06:33:59;;;;;;;1.00;0.90;;;17.90;92.10;;;;;;5054814;28;20077;-43
2024/03/17 06:36:25;;;;;;;1.10;0.70;;;17.90;92.10;;;;;;5054521;28;20112;-45
2024/03/17 06:38:51;;;;;;;2.08;0.90;;;17.90;92.10;;;;;;5054683;28;20028;-45
2024/03/17 06:41:17;;;;;;;2.38;0.70;;;17.90;92.10;;;;;;5054577;28;20496;-44
2024/03/17 06:43:43;;;;;;;1.00;0.70;;;17.90;92.10;;;;;;5054718;28;20047;-44
2024/03/17 06:46:09;;;;;;;1.02;0.63;;;17.90;92.10;;;;;;5054518;28;20100;-44
2024/03/17 06:48:35;;;;;;;0.98;0.80;;;17.90;92.10;;;;;;5054538;28;20116;-45
2024/03/17 06:51:01;;;;;;;1.67;0.80;;;17.90;92.10;;;;;;5054379;28;20017;-45
2024/03/17 06:53:26;;;;;;;0.90;0.73;;;17.90;92.10;;;;;;5054492;28;20032;-44
2024/03/17 06:55:56;;;;;;;1.27;0.77;;;17.90;92.10;;;;;;5054225;28;20547;-44
2024/03/17 06:58:27;;;;;;;1.00;0.77;;;17.90;92.40;;;;;;5054344;28;20036;-45
2024/03/17 07:00:58;;;;;;;1.40;0.90;;;17.90;92.10;;;;;;5054248;28;20495;-45
2024/03/17 07:03:26;;;;;;;1.50;0.88;;;17.90;92.10;;;;;;5054192;28;20156;-44
2024/03/17 07:05:57;;;;;;;0.77;0.70;;;18.00;92.10;;;;;;5054061;28;20017;-44
2024/03/17 07:08:23;;;;;;;1.35;0.80;;;17.90;92.10;;;;;;5054043;28;20434;-45
2024/03/17 07:11:03;;;;;;;1.00;0.70;;;18.00;92.10;;;;;;5054051;28;20499;-45
2024/03/17 07:13:30;;;;;;;1.70;0.90;;;18.00;92.10;;;;;;5054126;28;20510;-45
2024/03/17 07:15:56;;;;;;;1.30;0.80;;;18.00;92.20;;;;;;5053837;28;20025;-44
2024/03/17 07:18:22;;;;;;;1.05;0.77;;;17.90;92.10;;;;;;5054049;28;20399;-45
2024/03/17 07:20:47;;;;;;;0.98;0.70;;;18.00;92.50;;;;;;5053821;28;20504;-45
2024/03/17 07:23:15;;;;;;;0.88;0.73;;;18.00;92.10;;;;;;5054267;28;20155;-45
2024/03/17 07:25:42;;;;;;;1.85;0.90;;;18.00;92.10;;;;;;5053834;28;20028;-44
2024/03/17 07:28:08;;;;;;;1.23;0.80;;;18.00;92.10;;;;;;5053630;28;20029;-45
2024/03/17 07:30:33;;;;;;;4.82;0.95;;;18.00;92.10;;;;;;5053883;28;20430;-45
2024/03/17 07:32:59;;;;;;;1.13;0.82;;;18.00;92.10;;;;;;5052952;28;20104;-45
2024/03/17 07:35:25;;;;;;;1.00;0.80;;;18.00;92.10;;;;;;5053733;28;20147;-45
2024/03/17 07:37:50;;;;;;;1.15;0.80;;;18.00;92.10;;;;;;5053494;28;20035;-44
2024/03/17 07:40:16;;;;;;;1.00;0.70;;;18.10;92.20;;;;;;5053571;28;20025;-44
2024/03/17 07:42:42;;;;;;;1.15;0.65;;;18.10;92.20;;;;;;5053500;28;20102;-45
2024/03/17 07:45:08;;;;;;;1.00;0.55;;;18.10;92.20;;;;;;5053508;28;20029;-44
2024/03/17 07:47:37;;;;;;;0.80;0.70;;;18.10;92.20;;;;;;5053216;28;20032;-44
2024/03/17 07:50:05;;;;;;;1.13;0.88;;;18.10;92.20;;;;;;5053723;28;20036;-42
2024/03/17 07:52:31;;;;;;;1.23;0.85;;;18.20;92.20;;;;;;5053549;28;20025;-44
2024/03/17 07:54:57;;;;;;;1.63;1.10;;;18.10;92.20;;;;;;5053328;28;20021;-44
2024/03/17 07:57:22;;;;;;;1.20;1.00;;;18.20;92.20;;;;;;5052945;28;20071;-44
2024/03/17 07:59:52;;;;;;;1.00;0.80;;;18.20;92.20;;;;;;5053085;28;20068;-45
2024/03/17 08:02:17;;;;;;;1.60;0.82;;;18.20;92.10;;;;;;5053334;28;20079;-45
2024/03/17 08:04:44;;;;;;;1.20;0.95;;;18.20;92.10;;;;;;5053085;28;20435;-45
2024/03/17 08:07:10;;;;;;;2.40;0.93;;;18.30;92.20;;;;;;5052919;28;20017;-45
2024/03/17 08:09:36;;;;;;;0.98;0.80;;;18.30;92.10;;;;;;5052974;28;20116;-44
2024/03/17 08:12:04;;;;;;;1.00;0.75;;;18.30;92.10;;;;;;5052925;28;20049;-44
2024/03/17 08:14:30;;;;;;;1.10;0.90;;;18.30;92.10;;;;;;5053014;28;20021;-45
2024/03/17 08:16:55;;;;;;;1.40;1.13;;;18.30;92.00;;;;;;5052863;28;20100;-44
2024/03/17 08:19:21;;;;;;;1.92;1.15;;;18.30;92.00;;;;;;5052903;28;20096;-44
2024/03/17 08:21:47;;;;;;;1.33;1.05;;;18.30;92.00;;;;;;5052715;28;20056;-45
2024/03/17 08:24:13;;;;;;;2.28;0.90;;;18.40;92.00;;;;;;5053175;28;20025;-42
2024/03/17 08:26:40;;;;;;;1.05;0.80;;;18.40;92.00;;;;;;5052440;28;20052;-45
2024/03/17 08:29:06;;;;;;;1.10;0.90;;;18.40;92.00;;;;;;5052618;28;20110;-45
2024/03/17 08:31:32;;;;;;;1.10;0.70;;;18.40;92.00;;;;;;5052735;28;20025;-45
2024/03/17 08:33:57;;;;;;;1.23;0.65;;;18.50;92.10;;;;;;5052524;28;20028;-45
2024/03/17 08:36:24;;;;;;;1.00;0.90;;;18.50;92.00;;;;;;5052409;28;20036;-45
2024/03/17 08:38:50;;;;;;;1.00;0.70;;;18.50;92.00;;;;;;5052571;28;20108;-45
2024/03/17 08:41:16;;;;;;;0.82;0.73;;;18.50;92.00;;;;;;5052330;28;20056;-45
2024/03/17 08:43:43;;;;;;;0.90;0.70;;;18.50;92.00;;;;;;5052443;28;20021;-45
2024/03/17 08:46:09;;;;;;;1.00;0.70;;;18.50;92.00;;;;;;5052214;28;20029;-45
2024/03/17 08:48:38;;;;;;;0.90;0.70;;;18.60;92.10;;;;;;5052279;28;20318;-45
2024/03/17 08:51:05;;;;;;;1.35;0.88;;;18.60;92.00;;;;;;5051972;28;20029;-45
2024/03/17 08:53:31;;;;;;;1.17;0.70;;;18.60;92.00;;;;;;5052197;28;20033;-45
2024/03/17 08:55:58;;;;;;;1.33;0.70;;;18.60;92.00;;;;;;5051932;28;20104;-45
2024/03/17 08:58:24;;;;;;;1.00;0.65;;;18.60;92.00;;;;;;5051953;28;20071;-45
2024/03/17 09:00:51;;;;;;;1.05;0.70;;;18.70;92.00;;;;;;5052032;28;20029;-46
2024/03/17 09:03:16;;;;;;;0.95;0.70;;;18.70;92.00;;;;;;5052089;28;20035;-45
2024/03/17 09:05:45;;;;;;;1.35;0.90;;;18.70;91.90;;;;;;5052027;28;20021;-45
2024/03/17 09:08:24;;;;;;;1.00;0.60;;;18.70;91.90;;;;;;5052026;28;20047;-44
2024/03/17 09:10:54;;;;;;;0.90;0.70;;;18.80;91.90;;;;;;5051963;28;20055;-44
2024/03/17 09:13:25;;;;;;;0.80;0.52;;;18.80;91.90;;;;;;5052153;28;20024;-44
2024/03/17 09:16:02;;;;;;;1.15;0.60;;;18.80;91.80;;;;;;5052273;28;20108;-45
2024/03/17 09:18:32;;;;;;;0.80;0.70;;;18.90;91.80;;;;;;5051961;28;20036;-45
2024/03/17 09:21:08;;;;;;;0.80;0.68;;;18.90;91.80;;;;;;5052202;28;20507;-45
2024/03/17 09:23:34;;;;;;;0.85;0.70;;;18.90;91.70;;;;;;5052209;28;20033;-44
2024/03/17 09:26:02;;;;;;;0.88;0.57;;;18.90;91.70;;;;;;5051737;28;20532;-44
2024/03/17 09:28:28;;;;;;;0.70;0.52;;;19.00;91.70;;;;;;5051761;28;20112;-44
2024/03/17 09:30:55;;;;;;;1.42;0.88;;;19.00;91.70;;;;;;5051588;28;20051;-43
2024/03/17 09:33:21;;;;;;;0.93;0.70;;;19.00;91.70;;;;;;5051414;28;20361;-44
2024/03/17 09:36:14;;;;;;;0.90;0.50;;;19.00;91.60;;;;;;5051654;28;20025;-44
2024/03/17 09:38:39;;;;;;;1.02;0.70;;;19.10;91.60;;;;;;5050752;28;20090;-44
2024/03/17 09:41:06;;;;;;;1.58;0.80;;;19.10;91.60;;;;;;5051589;28;20025;-44
2024/03/17 09:43:34;;;;;;;0.70;0.50;;;19.10;91.50;;;;;;5051508;28;20028;-44
2024/03/17 09:46:02;;;;;;;0.70;0.52;;;19.10;91.50;;;;;;5051252;28;20032;-43
2024/03/17 09:48:28;;;;;;;0.88;0.70;;;19.20;91.80;;;;;;5051249;28;20041;-43
2024/03/17 09:51:02;;;;;;;0.73;0.50;;;19.20;91.40;;;;;;5051109;28;20373;-44
2024/03/17 09:53:30;;;;;;;0.90;0.60;;;19.20;91.40;;;;;;5051387;28;20036;-44
2024/03/17 09:56:01;;;;;;;1.05;0.70;;;19.20;91.30;;;;;;5050801;28;20565;-44
2024/03/17 09:58:27;;;;;;;1.15;0.50;;;19.20;91.30;;;;;;5051097;28;20068;-44
2024/03/17 10:00:53;;;;;;;0.55;0.45;;;19.30;91.30;;;;;;5050975;28;20082;-44
2024/03/17 10:03:49;;;;;;;0.80;0.50;;;19.30;91.30;;;;;;5051224;28;20045;-45
2024/03/17 10:06:16;;;;;;;0.70;0.60;;;19.30;91.30;;;;;;5051023;28;20025;-43
2024/03/17 10:08:46;;;;;;;1.30;0.65;;;19.40;91.40;;;;;;5050891;28;20120;-44
2024/03/17 10:11:15;;;;;;;0.70;0.60;;;19.40;91.30;;;;;;5050966;28;20017;-44
2024/03/17 10:13:46;;;;;;;2.10;0.68;;;19.50;91.30;;;;;;5051052;28;20021;-43
2024/03/17 10:16:38;;;;;;;1.80;1.10;;;19.50;91.20;;;;;;5050959;28;20499;-44
2024/03/17 10:19:14;;;;;;;1.85;0.90;;;19.60;91.00;;;;;;5049765;28;20041;-44
2024/03/17 10:21:46;;;;;;;5.93;1.20;;;19.70;90.90;;;;;;5051108;28;20021;-44
2024/03/17 10:24:26;;;;;;;0.95;0.75;;;19.70;90.70;;;;;;5050928;28;20036;-43
2024/03/17 10:26:55;;;;;;;1.60;1.00;;;19.80;90.70;;;;;;5051332;28;20033;-44
2024/03/17 10:29:32;;;;;;;1.52;0.82;;;19.80;90.60;;;;;;5050869;28;20025;-44
2024/03/17 10:32:19;;;;;;;2.20;0.93;;;19.90;90.50;;;;;;5050880;28;20029;-44
2024/03/17 10:34:45;;;;;;;1.48;1.02;;;20.00;90.40;;;;;;5051022;28;20163;-44
2024/03/17 10:37:17;;;;;;;1.00;0.80;;;20.10;90.30;;;;;;5050752;28;20108;-44
2024/03/17 10:39:44;;;;;;;2.17;1.02;;;20.10;90.20;;;;;;5050715;28;20112;-44
2024/03/17 10:42:13;;;;;;;1.23;0.93;;;20.20;90.20;;;;;;5050632;28;20111;-44
2024/03/17 10:44:41;;;;;;;1.40;0.93;;;20.20;90.10;;;;;;5050727;28;20120;-44
2024/03/17 10:47:11;;;;;;;1.77;0.98;;;20.20;90.10;;;;;;5050657;28;20025;-44
2024/03/17 10:49:38;;;;;;;2.95;0.98;;;20.20;90.10;;;;;;5051017;28;20033;-44
2024/03/17 10:52:15;;;;;;;2.03;0.88;;;20.20;90.00;;;;;;5050755;28;20025;-43
2024/03/17 10:54:47;;;;;;;1.95;1.00;;;20.20;90.00;;;;;;5050629;28;20029;-44
2024/03/17 10:57:38;;;;;;;1.85;1.00;;;20.20;90.00;;;;;;5050494;28;20036;-43
2024/03/17 11:00:08;;;;;;;2.00;0.80;;;20.30;90.00;;;;;;5050667;28;20025;-44
2024/03/17 11:02:36;;;;;;;1.08;0.85;;;20.30;90.00;;;;;;5050671;28;20053;-44
2024/03/17 11:05:21;;;;;;;2.17;1.00;;;20.30;90.00;;;;;;5050473;28;20096;-44
2024/03/17 11:07:48;;;;;;;1.00;0.60;;;20.30;89.90;;;;;;5052804;28;20396;-44
2024/03/17 11:10:27;;;;;;;1.38;0.80;;;20.30;89.90;;;;;;5054142;28;20070;-44
2024/03/17 11:12:56;;;;;;;1.05;0.73;;;20.30;89.80;;;;;;5054271;28;20492;-45
2024/03/17 11:15:33;;;;;;;1.15;0.70;;;20.30;89.90;;;;;;5053928;28;20155;-44
2024/03/17 11:18:08;;;;;;;1.90;0.90;;;20.30;89.90;;;;;;5053921;28;20060;-45
2024/03/17 11:20:37;;;;;;;1.88;0.65;;;20.30;89.80;;;;;;5053938;28;20025;-44
2024/03/17 11:23:03;;;;;;;1.33;0.80;;;20.30;89.80;;;;;;5054066;28;20029;-44
2024/03/17 11:25:33;;;;;;;1.38;0.70;;;20.40;89.70;;;;;;5054511;28;20028;-44
2024/03/17 11:28:00;;;;;;;1.00;0.60;;;20.40;90.20;;;;;;5053533;28;20036;-45
2024/03/17 11:30:43;;;;;;;0.85;0.60;;;20.40;89.60;;;;;;5053987;28;20024;-45
2024/03/17 11:33:35;;;;;;;2.08;0.80;;;20.50;89.60;;;;;;5053950;28;20500;-45
2024/03/17 11:36:25;;;;;;;1.40;0.50;;;20.50;89.50;;;;;;5053599;28;20392;-44
2024/03/17 11:39:06;;;;;;;1.20;0.60;;;20.50;89.40;;;;;;5053681;28;20535;-45
2024/03/17 11:41:34;;;;;;;1.85;0.55;;;20.50;89.30;;;;;;5053610;28;20108;-44
2024/03/17 11:44:29;;;;;;;1.50;0.60;;;20.50;89.20;;;;;;5053599;28;20117;-44
2024/03/17 11:47:04;;;;;;;1.45;0.63;;;20.60;89.10;;;;;;5053750;28;20024;-44
2024/03/17 11:49:33;;;;;;;0.80;0.57;;;20.60;89.10;;;;;;5052325;28;20527;-44
2024/03/17 11:52:01;;;;;;;1.00;0.57;;;20.60;89.00;;;;;;5053520;28;20507;-44
2024/03/17 11:54:31;;;;;;;1.10;0.50;;;20.70;89.00;;;;;;5053885;28;20036;-44
2024/03/17 11:57:02;;;;;;;1.35;0.60;;;20.70;88.90;;;;;;5053504;28;20033;-43
2024/03/17 11:59:29;;;;;;;0.95;0.60;;;20.70;88.90;;;;;;5053424;28;20040;-44
2024/03/17 12:01:54;;;;;;;1.00;0.50;;;20.70;88.80;;;;;;5053498;28;20488;-44
2024/03/17 12:04:22;;;;;;;1.25;0.60;;;20.70;88.80;;;;;;5053433;28;20035;-44
2024/03/17 12:06:50;;;;;;;2.88;0.70;;;20.70;88.80;;;;;;5053216;28;20035;-44
2024/03/17 12:09:31;;;;;;;0.70;0.40;;;20.70;88.80;;;;;;5053259;28;20029;-45
2024/03/17 12:12:11;;;;;;;0.90;0.40;;;20.70;88.80;;;;;;5053266;28;20018;-45
2024/03/17 12:14:37;;;;;;;0.65;0.45;;;20.70;88.80;;;;;;5051785;28;20100;-44
2024/03/17 12:17:11;;;;;;;0.80;0.63;;;20.70;88.90;;;;;;5052667;28;20036;-45
2024/03/17 12:19:37;;;;;;;0.98;0.52;;;20.60;88.90;;;;;;5052917;28;20083;-45
2024/03/17 12:22:05;;;;;;;0.50;0.40;;;20.60;88.90;;;;;;5053373;28;20091;-45
2024/03/17 12:24:35;;;;;;;0.80;0.35;;;20.60;88.90;;;;;;5053037;28;20068;-45
2024/03/17 12:27:04;;;;;;;1.33;0.50;;;20.60;88.90;;;;;;5052984;28;20380;-45
2024/03/17 12:29:40;;;;;;;1.23;0.80;;;20.60;88.90;;;;;;5052908;28;20021;-45
2024/03/17 12:32:20;;;;;;;1.40;0.60;;;20.60;88.90;;;;;;5053104;28;20024;-45
2024/03/17 12:34:51;;;;;;;0.73;0.40;;;20.60;88.90;;;;;;5052982;28;20327;-45
2024/03/17 12:37:33;;;;;;;0.80;0.43;;;20.60;88.90;;;;;;5052642;28;20311;-45
2024/03/17 12:39:59;;;;;;;0.45;0.40;;;20.60;88.90;;;;;;5052588;28;20036;-44
2024/03/17 12:42:26;;;;;;;1.20;0.47;;;20.60;89.00;;;;;;5052642;28;20017;-46
2024/03/17 12:44:59;;;;;;;0.73;0.50;;;20.60;89.10;;;;;;5052423;28;20020;-46
2024/03/17 12:47:29;;;;;;;1.00;0.40;;;20.50;89.00;;;;;;5052505;28;20036;-45
2024/03/17 12:49:59;;;;;;;0.95;0.60;;;20.50;89.00;;;;;;5052463;28;20071;-45
2024/03/17 12:52:33;;;;;;;0.88;0.40;;;20.50;89.00;;;;;;5052637;28;20066;-45
2024/03/17 13:00:35;;;;;;;0.75;0.47;;;20.40;89.30;;;;;;5052731;28;20047;-44
2024/03/17 13:03:02;;;;;;;0.50;0.32;;;20.50;89.40;;;;;;5052191;28;20481;-45